Time;durP1;ratioP1;P1;durP2;ratioP2;P2;SDS_P1;SDS_P2;PMS_P1;PMS_P2;Temp;Humidity;BMP_temperature;BMP_pressure;BME280_temperature;BME280_humidity;BME280_pressure;Samples;Min_cycle;Max_cycle;Signal;HPM_P1;HPM_P2
2022/10/17 00:00:09;;;;;;;7.93;3.83;;;;;;;;;;5110745;28;20614;-64
2022/10/17 00:02:34;;;;;;;7.32;4.07;;;;;;;;;;5102665;28;20267;-66
2022/10/17 00:04:59;;;;;;;6.25;3.47;;;;;;;;;;5111612;28;20061;-67
2022/10/17 00:07:24;;;;;;;10.13;4.50;;;;;;;;;;5110978;28;20047;-64
2022/10/17 00:09:50;;;;;;;12.80;4.22;;;;;;;;;;5112354;28;20280;-66
2022/10/17 00:12:15;;;;;;;8.90;4.40;;;;;;;;;;5112116;28;20019;-66
2022/10/17 00:14:40;;;;;;;7.00;4.00;;;;;;;;;;5106462;28;20275;-67
2022/10/17 00:17:05;;;;;;;7.93;4.25;;;;;;;;;;5110751;28;20278;-66
2022/10/17 00:19:30;;;;;;;10.10;4.55;;;;;;;;;;5112525;28;20080;-69
2022/10/17 00:21:56;;;;;;;9.07;3.60;;;;;;;;;;5111325;28;20023;-64
2022/10/17 00:24:21;;;;;;;7.93;4.13;;;;;;;;;;5110430;28;20691;-67
2022/10/17 00:26:46;;;;;;;7.17;3.43;;;;;;;;;;5111855;28;20030;-65
2022/10/17 00:29:11;;;;;;;6.73;3.90;;;;;;;;;;5111638;28;20348;-68
2022/10/17 00:31:36;;;;;;;11.43;3.93;;;;;;;;;;5110120;28;20267;-66
2022/10/17 00:34:02;;;;;;;8.27;3.80;;;;;;;;;;5112579;28;20335;-68
2022/10/17 00:36:27;;;;;;;12.82;4.10;;;;;;;;;;5111240;28;20186;-67
2022/10/17 00:38:53;;;;;;;13.43;4.75;;;;;;;;;;5111517;28;20023;-69
2022/10/17 00:41:20;;;;;;;10.18;3.90;;;;;;;;;;5111820;28;20027;-66
2022/10/17 00:43:58;;;;;;;8.88;3.83;;;;;;;;;;5099811;28;20024;-64
2022/10/17 00:46:25;;;;;;;21.88;4.18;;;;;;;;;;5097952;28;20044;-66
2022/10/17 00:48:52;;;;;;;5.28;3.03;;;;;;;;;;5111540;28;20035;-67
2022/10/17 00:51:18;;;;;;;6.07;3.15;;;;;;;;;;5110834;28;20023;-66
2022/10/17 00:53:44;;;;;;;8.80;3.95;;;;;;;;;;5110084;28;20103;-67
2022/10/17 00:56:10;;;;;;;7.40;3.45;;;;;;;;;;5111409;28;20477;-68
2022/10/17 00:58:35;;;;;;;5.60;2.97;;;;;;;;;;5111502;28;20016;-65
2022/10/17 01:01:01;;;;;;;7.80;3.03;;;;;;;;;;5110000;28;20460;-68
2022/10/17 01:03:26;;;;;;;8.15;3.13;;;;;;;;;;5110961;28;20734;-65
2022/10/17 01:05:51;;;;;;;7.93;3.53;;;;;;;;;;5110705;28;20103;-67
2022/10/17 01:08:17;;;;;;;7.72;3.42;;;;;;;;;;5110232;28;20024;-65
2022/10/17 01:10:42;;;;;;;14.40;3.58;;;;;;;;;;5109233;28;20023;-68
2022/10/17 01:13:12;;;;;;;10.43;3.40;;;;;;;;;;5110739;28;20044;-66
2022/10/17 01:15:56;;;;;;;9.10;3.45;;;;;;;;;;5107377;28;20826;-65
2022/10/17 01:18:30;;;;;;;5.63;3.40;;;;;;;;;;5110457;28;20073;-66
2022/10/17 01:21:01;;;;;;;7.00;3.70;;;;;;;;;;5109257;28;20011;-67
2022/10/17 01:23:29;;;;;;;7.22;3.80;;;;;;;;;;5108636;28;20030;-66
2022/10/17 01:25:55;;;;;;;6.22;3.33;;;;;;;;;;5109655;28;20110;-68
2022/10/17 01:28:38;;;;;;;8.07;3.80;;;;;;;;;;5110333;28;20472;-67
2022/10/17 01:31:07;;;;;;;8.57;4.05;;;;;;;;;;5110173;28;20478;-65
2022/10/17 01:33:38;;;;;;;7.88;4.03;;;;;;;;;;5111099;28;20488;-66
2022/10/17 01:36:06;;;;;;;16.83;4.25;;;;;;;;;;5110483;28;20622;-66
2022/10/17 01:38:38;;;;;;;7.47;4.77;;;;;;;;;;5110133;28;20091;-67
2022/10/17 01:41:15;;;;;;;15.25;3.88;;;;;;;;;;5108675;28;20258;-65
2022/10/17 01:43:45;;;;;;;9.77;3.55;;;;;;;;;;5109867;28;20034;-67
2022/10/17 01:46:20;;;;;;;12.88;3.85;;;;;;;;;;5110287;28;20051;-69
2022/10/17 01:48:45;;;;;;;8.02;3.63;;;;;;;;;;5110545;28;20022;-67
2022/10/17 01:51:14;;;;;;;7.15;3.63;;;;;;;;;;5106689;28;20388;-67
2022/10/17 01:53:46;;;;;;;7.93;3.85;;;;;;;;;;5109979;28;20484;-66
2022/10/17 01:56:12;;;;;;;11.93;3.47;;;;;;;;;;5103200;28;20020;-67
2022/10/17 01:58:40;;;;;;;6.85;3.55;;;;;;;;;;5109106;28;20544;-68
2022/10/17 02:01:07;;;;;;;6.70;3.10;;;;;;;;;;5109467;28;20028;-67
2022/10/17 02:03:33;;;;;;;6.32;3.40;;;;;;;;;;5109355;28;20168;-67
2022/10/17 02:05:58;;;;;;;5.90;3.03;;;;;;;;;;5110564;28;20080;-66
2022/10/17 02:08:27;;;;;;;8.38;3.45;;;;;;;;;;5109076;28;20027;-68
2022/10/17 02:10:52;;;;;;;;;;;;;;;;;;5110445;28;20020;-67
2022/10/17 02:13:35;;;;;;;6.45;3.40;;;;;;;;;;5110208;28;20557;-64
2022/10/17 02:16:02;;;;;;;9.68;3.50;;;;;;;;;;5100874;28;20030;-64
2022/10/17 02:18:31;;;;;;;12.23;3.30;;;;;;;;;;5109950;28;20016;-68
2022/10/17 02:20:59;;;;;;;11.10;3.63;;;;;;;;;;5105287;28;20020;-69
2022/10/17 02:23:37;;;;;;;7.40;3.50;;;;;;;;;;5106644;28;20765;-65
2022/10/17 02:26:08;;;;;;;7.60;3.47;;;;;;;;;;5108688;28;20111;-66
2022/10/17 02:28:41;;;;;;;7.43;3.60;;;;;;;;;;5108692;28;20527;-67
2022/10/17 02:31:11;;;;;;;6.03;2.90;;;;;;;;;;5109316;28;20073;-67
2022/10/17 02:34:00;;;;;;;8.40;3.40;;;;;;;;;;5110233;28;20350;-65
2022/10/17 02:36:28;;;;;;;11.27;3.28;;;;;;;;;;5099998;28;20039;-67
2022/10/17 02:38:53;;;;;;;10.15;3.67;;;;;;;;;;5107748;28;20024;-69
2022/10/17 02:41:20;;;;;;;5.80;2.83;;;;;;;;;;5109245;28;20445;-66
2022/10/17 02:43:47;;;;;;;7.55;3.10;;;;;;;;;;5108678;28;20415;-67
2022/10/17 02:46:19;;;;;;;16.02;3.75;;;;;;;;;;5107632;28;20060;-65
2022/10/17 02:48:47;;;;;;;8.80;3.30;;;;;;;;;;5109831;28;20040;-68
2022/10/17 02:51:24;;;;;;;9.80;3.33;;;;;;;;;;5109424;28;20390;-65
2022/10/17 02:54:08;;;;;;;6.10;3.28;;;;;;;;;;5103218;28;20079;-67
2022/10/17 02:56:38;;;;;;;8.63;3.63;;;;;;;;;;5099291;28;20024;-66
2022/10/17 02:59:05;;;;;;;7.10;3.47;;;;;;;;;;5110183;28;20538;-65
2022/10/17 03:01:30;;;;;;;7.25;3.40;;;;;;;;;;5109465;28;20094;-67
2022/10/17 03:04:05;;;;;;;5.75;3.20;;;;;;;;;;5108498;28;20091;-65
2022/10/17 03:06:31;;;;;;;8.77;3.30;;;;;;;;;;5110354;28;20393;-67
2022/10/17 03:08:56;;;;;;;7.95;4.32;;;;;;;;;;5112654;28;20015;-68
2022/10/17 03:11:22;;;;;;;10.65;3.75;;;;;;;;;;5111808;28;20098;-66
2022/10/17 03:13:47;;;;;;;8.00;3.58;;;;;;;;;;5113483;28;20016;-65
2022/10/17 03:16:12;;;;;;;13.60;4.30;;;;;;;;;;5113101;28;20023;-66
2022/10/17 03:18:37;;;;;;;8.33;2.90;;;;;;;;;;5112932;28;20283;-67
2022/10/17 03:21:02;;;;;;;7.25;3.38;;;;;;;;;;5113019;28;20258;-68
2022/10/17 03:23:28;;;;;;;9.00;3.70;;;;;;;;;;5112680;28;20110;-66
2022/10/17 03:25:53;;;;;;;9.15;3.53;;;;;;;;;;5111996;28;20422;-67
2022/10/17 03:28:18;;;;;;;7.20;3.80;;;;;;;;;;5112652;28;20063;-67
2022/10/17 03:30:43;;;;;;;6.03;3.35;;;;;;;;;;5111938;28;20268;-67
2022/10/17 03:33:08;;;;;;;8.25;3.17;;;;;;;;;;5113069;28;20055;-68
2022/10/17 03:35:37;;;;;;;8.60;3.70;;;;;;;;;;5112417;28;20030;-66
2022/10/17 03:38:02;;;;;;;11.77;3.72;;;;;;;;;;5112818;28;20347;-67
2022/10/17 03:40:27;;;;;;;7.73;3.80;;;;;;;;;;5113097;28;20572;-67
2022/10/17 03:42:52;;;;;;;11.47;3.60;;;;;;;;;;5112917;28;20255;-67
2022/10/17 03:45:17;;;;;;;18.30;4.38;;;;;;;;;;5111363;28;20248;-69
2022/10/17 03:47:43;;;;;;;9.67;4.00;;;;;;;;;;5112047;28;20028;-66
2022/10/17 03:50:08;;;;;;;7.75;3.55;;;;;;;;;;5111733;28;20268;-68
2022/10/17 03:52:33;;;;;;;9.85;4.00;;;;;;;;;;5110634;28;20044;-67
2022/10/17 03:54:58;;;;;;;8.90;4.13;;;;;;;;;;5112923;28;20019;-66
2022/10/17 03:57:24;;;;;;;11.77;4.32;;;;;;;;;;5111612;28;20323;-67
2022/10/17 03:59:49;;;;;;;10.02;3.90;;;;;;;;;;5111523;28;20080;-67
2022/10/17 04:02:15;;;;;;;8.13;3.70;;;;;;;;;;5112158;28;20118;-66
2022/10/17 04:04:40;;;;;;;9.32;3.88;;;;;;;;;;5112019;28;20023;-67
2022/10/17 04:07:05;;;;;;;7.20;3.92;;;;;;;;;;5110873;28;20016;-67
2022/10/17 04:09:30;;;;;;;9.90;3.40;;;;;;;;;;5111924;28;20489;-66
2022/10/17 04:11:55;;;;;;;15.68;3.70;;;;;;;;;;5112133;28;20023;-66
2022/10/17 04:14:21;;;;;;;14.85;4.32;;;;;;;;;;5102948;28;20024;-69
2022/10/17 04:16:46;;;;;;;10.00;3.72;;;;;;;;;;5107992;28;20034;-67
2022/10/17 04:19:12;;;;;;;8.15;3.85;;;;;;;;;;5107566;28;20036;-67
2022/10/17 04:21:37;;;;;;;9.55;3.72;;;;;;;;;;5112069;28;20020;-68
2022/10/17 04:24:03;;;;;;;7.38;3.78;;;;;;;;;;5112345;28;20023;-67
2022/10/17 04:26:28;;;;;;;11.68;3.83;;;;;;;;;;5112032;28;20041;-68
2022/10/17 04:28:53;;;;;;;11.43;4.57;;;;;;;;;;5109172;28;20035;-69
2022/10/17 04:31:19;;;;;;;9.45;4.18;;;;;;;;;;5111342;28;20016;-68
2022/10/17 04:33:47;;;;;;;9.85;3.65;;;;;;;;;;5111881;28;20382;-67
2022/10/17 04:36:13;;;;;;;9.00;4.63;;;;;;;;;;5109383;28;20031;-67
2022/10/17 04:38:39;;;;;;;11.50;4.28;;;;;;;;;;5110409;28;20099;-68
2022/10/17 04:41:06;;;;;;;10.40;3.95;;;;;;;;;;5110348;28;20091;-68
2022/10/17 04:43:33;;;;;;;6.50;3.80;;;;;;;;;;5110902;27;20019;-65
2022/10/17 04:45:59;;;;;;;8.88;4.32;;;;;;;;;;5111927;28;20500;-67
2022/10/17 04:48:24;;;;;;;8.32;3.80;;;;;;;;;;5111435;27;20019;-66
2022/10/17 04:51:10;;;;;;;9.35;4.22;;;;;;;;;;5110133;28;20041;-68
2022/10/17 04:53:37;;;;;;;13.82;4.57;;;;;;;;;;5112080;28;20020;-68
2022/10/17 04:56:09;;;;;;;14.43;4.13;;;;;;;;;;5111786;28;20158;-66
2022/10/17 04:58:35;;;;;;;14.10;4.60;;;;;;;;;;5111716;28;20020;-67
2022/10/17 05:01:03;;;;;;;10.63;4.75;;;;;;;;;;5112165;28;20022;-66
2022/10/17 05:03:28;;;;;;;14.07;5.32;;;;;;;;;;5113078;28;20023;-68
2022/10/17 05:05:53;;;;;;;14.85;5.25;;;;;;;;;;5110982;28;20024;-68
2022/10/17 05:08:19;;;;;;;10.65;5.18;;;;;;;;;;5110837;28;20545;-67
2022/10/17 05:10:45;;;;;;;17.13;6.32;;;;;;;;;;5109920;28;20019;-66
2022/10/17 05:13:10;;;;;;;13.98;5.38;;;;;;;;;;5110881;28;20427;-66
2022/10/17 05:15:35;;;;;;;10.65;4.95;;;;;;;;;;5106970;28;20519;-67
2022/10/17 05:18:01;;;;;;;11.85;5.03;;;;;;;;;;5105229;28;20087;-69
2022/10/17 05:20:26;;;;;;;12.43;6.70;;;;;;;;;;5108912;28;20027;-68
2022/10/17 05:22:51;;;;;;;21.52;6.13;;;;;;;;;;5109644;28;20024;-68
2022/10/17 05:25:17;;;;;;;15.80;5.78;;;;;;;;;;5109703;28;20027;-67
2022/10/17 05:27:42;;;;;;;13.52;5.82;;;;;;;;;;5108523;28;20020;-69
2022/10/17 05:30:07;;;;;;;19.48;6.05;;;;;;;;;;5099570;28;20046;-69
2022/10/17 05:32:32;;;;;;;13.63;6.15;;;;;;;;;;5110088;28;20024;-69
2022/10/17 05:34:58;;;;;;;12.57;5.55;;;;;;;;;;5109995;28;20035;-69
2022/10/17 05:37:23;;;;;;;21.48;6.15;;;;;;;;;;5108788;28;20030;-68
2022/10/17 05:39:48;;;;;;;24.20;6.72;;;;;;;;;;5109011;28;20035;-68
2022/10/17 05:42:16;;;;;;;10.65;5.07;;;;;;;;;;5111923;28;20028;-73
2022/10/17 05:44:41;;;;;;;12.50;5.90;;;;;;;;;;5111062;28;20510;-67
2022/10/17 05:47:07;;;;;;;12.18;4.25;;;;;;;;;;5109875;28;20264;-69
2022/10/17 05:49:32;;;;;;;9.25;4.68;;;;;;;;;;5110542;28;20105;-66
2022/10/17 05:51:58;;;;;;;11.55;4.68;;;;;;;;;;5112122;28;20047;-67
2022/10/17 05:54:23;;;;;;;18.38;4.65;;;;;;;;;;5110108;28;20024;-69
2022/10/17 05:56:52;;;;;;;18.17;3.97;;;;;;;;;;5109531;28;20019;-68
2022/10/17 05:59:17;;;;;;;20.35;6.35;;;;;;;;;;5110866;28;20012;-66
2022/10/17 06:01:42;;;;;;;18.17;5.50;;;;;;;;;;5109677;28;20041;-66
2022/10/17 06:04:07;;;;;;;9.85;3.92;;;;;;;;;;5108780;28;20103;-68
2022/10/17 06:06:34;;;;;;;10.80;3.67;;;;;;;;;;5109413;28;20016;-65
2022/10/17 06:08:59;;;;;;;11.05;5.20;;;;;;;;;;5096140;28;20035;-68
2022/10/17 06:11:25;;;;;;;11.10;4.17;;;;;;;;;;5110448;28;20023;-67
2022/10/17 06:13:50;;;;;;;14.15;4.82;;;;;;;;;;5110302;28;20897;-68
2022/10/17 06:16:15;;;;;;;12.50;4.68;;;;;;;;;;5111716;28;20027;-67
2022/10/17 06:18:40;;;;;;;10.20;4.53;;;;;;;;;;5109786;28;20019;-66
2022/10/17 06:21:09;;;;;;;17.48;5.25;;;;;;;;;;5110256;28;20247;-67
2022/10/17 06:23:34;;;;;;;;;;;;;;;;;;5110033;28;20036;-67
2022/10/17 06:26:00;;;;;;;9.63;4.72;;;;;;;;;;5110024;28;19956;-66
2022/10/17 06:28:25;;;;;;;15.75;4.70;;;;;;;;;;5109514;28;20023;-66
2022/10/17 06:30:51;;;;;;;15.48;4.38;;;;;;;;;;5108271;28;20023;-70
2022/10/17 06:33:16;;;;;;;20.02;5.35;;;;;;;;;;5110101;28;20392;-66
2022/10/17 06:35:42;;;;;;;9.18;4.00;;;;;;;;;;5108575;28;20034;-67
2022/10/17 06:38:07;;;;;;;11.50;4.38;;;;;;;;;;5109256;28;20018;-68
2022/10/17 06:40:32;;;;;;;13.90;4.50;;;;;;;;;;5109513;28;20027;-65
2022/10/17 06:42:57;;;;;;;15.10;5.53;;;;;;;;;;5104404;28;20249;-66
2022/10/17 06:45:22;;;;;;;16.55;4.57;;;;;;;;;;5101569;28;20023;-66
2022/10/17 06:47:48;;;;;;;23.27;5.40;;;;;;;;;;5109058;28;20099;-68
2022/10/17 06:50:14;;;;;;;17.33;5.13;;;;;;;;;;5107810;28;20031;-66
2022/10/17 06:52:39;;;;;;;11.55;5.32;;;;;;;;;;5108159;28;20020;-67
2022/10/17 06:55:04;;;;;;;8.93;4.28;;;;;;;;;;5109184;28;20020;-68
2022/10/17 06:57:29;;;;;;;13.60;3.80;;;;;;;;;;5109330;28;20081;-68
2022/10/17 06:59:56;;;;;;;11.77;4.57;;;;;;;;;;5109162;28;20092;-68
2022/10/17 07:02:22;;;;;;;17.10;5.20;;;;;;;;;;5109591;28;20621;-65
2022/10/17 07:04:48;;;;;;;14.23;4.43;;;;;;;;;;5107870;28;20026;-67
2022/10/17 07:07:13;;;;;;;14.38;4.95;;;;;;;;;;5109121;28;20507;-67
2022/10/17 07:09:38;;;;;;;11.15;3.53;;;;;;;;;;5108913;28;20023;-66
2022/10/17 07:12:06;;;;;;;14.65;3.83;;;;;;;;;;5109538;28;20240;-66
2022/10/17 07:14:32;;;;;;;18.85;4.53;;;;;;;;;;5109413;28;20102;-67
2022/10/17 07:16:58;;;;;;;9.43;3.47;;;;;;;;;;5108960;28;20550;-68
2022/10/17 07:19:23;;;;;;;17.13;4.50;;;;;;;;;;5109242;28;20763;-67
2022/10/17 07:21:48;;;;;;;12.48;4.07;;;;;;;;;;5109349;28;20490;-69
2022/10/17 07:24:13;;;;;;;8.50;3.80;;;;;;;;;;5108877;28;20023;-69
2022/10/17 07:26:38;;;;;;;10.73;4.50;;;;;;;;;;5109090;28;20264;-68
2022/10/17 07:29:05;;;;;;;11.33;3.93;;;;;;;;;;5098756;28;20043;-66
2022/10/17 07:31:30;;;;;;;13.95;3.95;;;;;;;;;;5107850;28;20266;-66
2022/10/17 07:33:57;;;;;;;11.23;3.70;;;;;;;;;;5109096;28;20055;-68
2022/10/17 07:36:23;;;;;;;12.65;3.17;;;;;;;;;;5109032;28;20473;-66
2022/10/17 07:38:48;;;;;;;13.30;3.67;;;;;;;;;;5109180;28;20023;-69
2022/10/17 07:41:13;;;;;;;12.05;3.78;;;;;;;;;;5107094;28;20538;-67
2022/10/17 07:43:40;;;;;;;17.02;3.30;;;;;;;;;;5109112;28;20048;-69
2022/10/17 07:46:07;;;;;;;11.48;3.17;;;;;;;;;;5108952;28;20129;-70
2022/10/17 07:48:32;;;;;;;8.88;3.30;;;;;;;;;;5109102;28;20027;-67
2022/10/17 07:51:00;;;;;;;17.70;3.92;;;;;;;;;;5109147;28;20023;-68
2022/10/17 07:53:26;;;;;;;10.50;3.88;;;;;;;;;;5110259;28;20098;-67
2022/10/17 07:55:51;;;;;;;15.33;5.20;;;;;;;;;;5111875;28;20164;-66
2022/10/17 07:58:16;;;;;;;12.23;4.60;;;;;;;;;;5111942;28;20283;-67
2022/10/17 08:00:41;;;;;;;11.70;4.97;;;;;;;;;;5112047;28;20259;-67
2022/10/17 08:03:07;;;;;;;14.85;3.60;;;;;;;;;;5112247;28;20073;-68
2022/10/17 08:05:33;;;;;;;10.80;3.33;;;;;;;;;;5111367;28;20020;-66
2022/10/17 08:07:58;;;;;;;14.20;3.47;;;;;;;;;;5112104;28;20039;-69
2022/10/17 08:10:28;;;;;;;7.73;3.43;;;;;;;;;;5111793;28;20503;-68
2022/10/17 08:12:53;;;;;;;19.05;3.60;;;;;;;;;;5112471;28;20679;-67
2022/10/17 08:15:19;;;;;;;14.70;3.55;;;;;;;;;;5112065;28;20632;-69
2022/10/17 08:17:44;;;;;;;22.23;3.28;;;;;;;;;;5111686;28;20015;-68
2022/10/17 08:20:09;;;;;;;9.40;3.60;;;;;;;;;;5112280;28;20124;-65
2022/10/17 08:22:35;;;;;;;12.57;3.88;;;;;;;;;;5110792;28;20252;-67
2022/10/17 08:25:00;;;;;;;20.35;3.92;;;;;;;;;;5110484;28;20039;-67
2022/10/17 08:27:27;;;;;;;13.10;3.53;;;;;;;;;;5112123;28;20028;-67
2022/10/17 08:29:53;;;;;;;10.98;3.95;;;;;;;;;;5111852;28;20276;-67
2022/10/17 08:32:19;;;;;;;12.57;3.55;;;;;;;;;;5112310;28;20065;-68
2022/10/17 08:34:44;;;;;;;12.07;4.68;;;;;;;;;;5110649;28;20362;-67
2022/10/17 08:37:09;;;;;;;6.97;2.77;;;;;;;;;;5112232;28;20012;-67
2022/10/17 08:39:34;;;;;;;12.57;3.53;;;;;;;;;;5110934;28;20757;-68
2022/10/17 08:41:59;;;;;;;24.75;3.97;;;;;;;;;;5112147;28;20011;-67
2022/10/17 08:44:34;;;;;;;8.23;3.27;;;;;;;;;;5111750;28;20485;-70
2022/10/17 08:47:02;;;;;;;15.73;3.47;;;;;;;;;;5112038;28;20247;-68
2022/10/17 08:49:33;;;;;;;19.80;3.72;;;;;;;;;;5111420;28;20016;-70
2022/10/17 08:52:06;;;;;;;14.30;3.75;;;;;;;;;;5108312;28;20106;-67
2022/10/17 08:54:31;;;;;;;14.70;3.53;;;;;;;;;;5111798;28;20408;-68
2022/10/17 08:56:56;;;;;;;11.32;3.90;;;;;;;;;;5110963;28;20020;-66
2022/10/17 08:59:26;;;;;;;19.52;3.30;;;;;;;;;;5112071;28;20023;-66
2022/10/17 09:02:01;;;;;;;16.40;4.20;;;;;;;;;;5112128;28;20072;-69
2022/10/17 09:04:38;;;;;;;12.10;3.13;;;;;;;;;;5109643;28;20161;-68
2022/10/17 09:07:06;;;;;;;20.55;4.38;;;;;;;;;;5111006;28;20065;-68
2022/10/17 09:09:39;;;;;;;18.67;4.03;;;;;;;;;;5111359;28;20043;-67
2022/10/17 09:12:17;;;;;;;14.18;3.38;;;;;;;;;;5110593;28;20024;-68
2022/10/17 09:14:42;;;;;;;;;;;;;;;;;;5111627;28;20024;-68
2022/10/17 09:17:14;;;;;;;17.30;3.72;;;;;;;;;;5110963;28;19929;-67
2022/10/17 09:19:42;;;;;;;10.50;3.38;;;;;;;;;;5111108;28;20138;-67
2022/10/17 09:22:17;;;;;;;12.70;3.67;;;;;;;;;;5111692;28;20505;-69
2022/10/17 09:24:42;;;;;;;17.55;5.55;;;;;;;;;;5109343;28;20389;-67
2022/10/17 09:27:16;;;;;;;13.98;3.80;;;;;;;;;;5108684;28;20024;-67
2022/10/17 09:29:44;;;;;;;9.77;3.70;;;;;;;;;;5096743;28;20115;-68
2022/10/17 09:32:12;;;;;;;14.82;3.90;;;;;;;;;;5111188;28;20080;-67
2022/10/17 09:34:37;;;;;;;21.13;4.63;;;;;;;;;;5110790;28;20015;-68
2022/10/17 09:37:06;;;;;;;11.38;3.75;;;;;;;;;;5110648;28;20026;-66
2022/10/17 09:39:31;;;;;;;17.17;3.58;;;;;;;;;;5110726;28;20083;-66
2022/10/17 09:41:58;;;;;;;15.93;3.97;;;;;;;;;;5110706;28;20111;-67
2022/10/17 09:44:23;;;;;;;9.98;3.63;;;;;;;;;;5110758;28;20094;-65
2022/10/17 09:46:57;;;;;;;11.75;3.92;;;;;;;;;;5110408;28;20051;-68
2022/10/17 09:49:30;;;;;;;12.93;3.88;;;;;;;;;;5109916;28;20490;-66
2022/10/17 09:51:55;;;;;;;12.57;3.65;;;;;;;;;;5109852;28;20019;-67
2022/10/17 09:54:26;;;;;;;17.10;4.57;;;;;;;;;;5110187;27;20099;-68
2022/10/17 09:57:02;;;;;;;17.20;3.17;;;;;;;;;;5109813;28;20054;-67
2022/10/17 09:59:32;;;;;;;14.32;4.00;;;;;;;;;;5110296;28;20026;-66
2022/10/17 10:02:24;;;;;;;7.90;3.40;;;;;;;;;;5110432;28;20493;-67
2022/10/17 10:04:53;;;;;;;13.75;3.10;;;;;;;;;;5105026;28;20032;-69
2022/10/17 10:07:19;;;;;;;11.98;3.70;;;;;;;;;;5109962;28;20077;-69
2022/10/17 10:09:46;;;;;;;9.80;3.53;;;;;;;;;;5109657;28;20015;-68
2022/10/17 10:12:18;;;;;;;17.25;3.40;;;;;;;;;;5109316;28;20073;-67
2022/10/17 10:14:45;;;;;;;13.20;3.38;;;;;;;;;;5110370;28;20086;-66
2022/10/17 10:17:30;;;;;;;9.63;3.38;;;;;;;;;;5106990;28;20031;-67
2022/10/17 10:19:55;;;;;;;10.45;3.22;;;;;;;;;;5105125;28;20035;-67
2022/10/17 10:22:24;;;;;;;12.13;2.83;;;;;;;;;;5109591;28;20161;-68
2022/10/17 10:25:08;;;;;;;14.05;3.47;;;;;;;;;;5108663;28;20252;-66
2022/10/17 10:27:34;;;;;;;11.80;4.25;;;;;;;;;;5107971;28;20085;-67
2022/10/17 10:30:00;;;;;;;7.78;3.20;;;;;;;;;;5109184;28;20136;-69
2022/10/17 10:32:25;;;;;;;9.05;3.13;;;;;;;;;;5109870;28;20525;-66
2022/10/17 10:34:59;;;;;;;10.60;3.17;;;;;;;;;;5109159;28;20636;-68
2022/10/17 10:37:26;;;;;;;8.25;3.42;;;;;;;;;;5109219;28;20256;-67
2022/10/17 10:39:58;;;;;;;10.07;3.13;;;;;;;;;;5109632;28;20457;-68
2022/10/17 10:42:23;;;;;;;8.73;2.63;;;;;;;;;;5108923;28;20032;-69
2022/10/17 10:44:49;;;;;;;12.43;2.93;;;;;;;;;;5096826;28;20027;-67
2022/10/17 10:47:16;;;;;;;14.38;4.93;;;;;;;;;;5109157;28;20059;-66
2022/10/17 10:49:41;;;;;;;7.03;2.60;;;;;;;;;;5109795;28;20058;-66
2022/10/17 10:52:09;;;;;;;9.43;2.83;;;;;;;;;;5106345;28;20019;-67
2022/10/17 10:54:39;;;;;;;9.73;3.25;;;;;;;;;;5109703;28;20024;-70
2022/10/17 10:57:06;;;;;;;15.07;3.47;;;;;;;;;;5108682;28;20020;-68
2022/10/17 10:59:40;;;;;;;14.25;3.30;;;;;;;;;;5109221;28;20011;-67
2022/10/17 11:02:16;;;;;;;13.20;3.15;;;;;;;;;;5107578;28;20088;-68
2022/10/17 11:04:41;;;;;;;12.32;3.30;;;;;;;;;;5107409;28;20102;-66
2022/10/17 11:07:14;;;;;;;15.73;4.00;;;;;;;;;;5107828;28;20126;-67
2022/10/17 11:09:56;;;;;;;8.50;2.75;;;;;;;;;;5125309;28;20282;-67
2022/10/17 11:12:32;;;;;;;11.57;3.15;;;;;;;;;;5109275;28;20027;-70
2022/10/17 11:15:00;;;;;;;15.80;3.10;;;;;;;;;;5109769;28;20098;-67
2022/10/17 11:17:33;;;;;;;9.85;2.83;;;;;;;;;;5109417;28;20018;-67
2022/10/17 11:20:05;;;;;;;12.60;3.63;;;;;;;;;;5109219;28;20015;-67
2022/10/17 11:22:31;;;;;;;12.57;2.67;;;;;;;;;;5109185;28;20102;-69
2022/10/17 11:25:16;;;;;;;16.38;3.28;;;;;;;;;;5109103;28;20011;-66
2022/10/17 11:27:41;;;;;;;12.80;3.35;;;;;;;;;;5108298;28;20114;-66
2022/10/17 11:30:11;;;;;;;8.70;2.70;;;;;;;;;;5111217;28;20107;-67
2022/10/17 11:32:52;;;;;;;26.48;3.20;;;;;;;;;;5111615;28;20500;-67
2022/10/17 11:35:23;;;;;;;7.03;3.00;;;;;;;;;;5101164;28;20015;-65
2022/10/17 11:37:51;;;;;;;12.50;3.20;;;;;;;;;;5113087;28;20473;-67
2022/10/17 11:40:30;;;;;;;8.80;2.50;;;;;;;;;;5113533;28;20024;-66
2022/10/17 11:42:55;;;;;;;13.27;3.67;;;;;;;;;;5107969;28;20371;-68
2022/10/17 11:45:22;;;;;;;10.40;3.17;;;;;;;;;;5103490;28;20050;-67
2022/10/17 11:47:53;;;;;;;10.98;3.30;;;;;;;;;;5112369;28;20332;-67
2022/10/17 11:50:18;;;;;;;11.48;2.92;;;;;;;;;;5113076;28;20023;-67
2022/10/17 11:52:49;;;;;;;9.87;2.40;;;;;;;;;;5112437;28;20023;-67
2022/10/17 11:55:18;;;;;;;16.17;3.00;;;;;;;;;;5112237;28;20259;-66
2022/10/17 11:58:02;;;;;;;11.52;2.85;;;;;;;;;;5111992;28;20431;-66
2022/10/17 12:00:36;;;;;;;8.10;2.75;;;;;;;;;;5112444;28;20015;-67
2022/10/17 12:03:05;;;;;;;13.02;5.20;;;;;;;;;;5112490;28;20024;-67
2022/10/17 12:05:41;;;;;;;20.88;3.20;;;;;;;;;;5113619;28;20019;-68
2022/10/17 12:08:12;;;;;;;16.27;3.00;;;;;;;;;;5111277;28;20020;-66
2022/10/17 12:10:49;;;;;;;13.13;3.70;;;;;;;;;;5112875;28;20020;-66
2022/10/17 12:13:26;;;;;;;11.57;3.45;;;;;;;;;;5128807;27;20562;-68
2022/10/17 12:15:51;;;;;;;8.70;3.10;;;;;;;;;;5113156;28;20045;-67
2022/10/17 12:18:17;;;;;;;9.98;3.55;;;;;;;;;;5103933;27;20433;-66
2022/10/17 12:20:42;;;;;;;10.40;3.40;;;;;;;;;;5112357;28;20028;-67
2022/10/17 12:23:10;;;;;;;8.77;3.70;;;;;;;;;;5112362;28;20023;-68
2022/10/17 12:25:57;;;;;;;14.82;3.45;;;;;;;;;;5111902;28;20096;-66
2022/10/17 12:28:28;;;;;;;14.80;3.90;;;;;;;;;;5109974;28;20028;-66
2022/10/17 12:30:55;;;;;;;7.00;2.90;;;;;;;;;;5112338;28;20016;-68
2022/10/17 12:33:29;;;;;;;16.20;3.20;;;;;;;;;;5112100;28;20027;-66
2022/10/17 12:36:13;;;;;;;18.17;4.63;;;;;;;;;;5109443;28;20576;-66
2022/10/17 12:38:38;;;;;;;7.68;3.70;;;;;;;;;;5111911;28;20431;-68
2022/10/17 12:41:04;;;;;;;13.27;3.70;;;;;;;;;;5112097;28;20465;-66
2022/10/17 12:43:29;;;;;;;9.35;2.72;;;;;;;;;;5111947;28;20264;-66
2022/10/17 12:45:58;;;;;;;15.77;3.20;;;;;;;;;;5111191;28;20118;-66
2022/10/17 12:48:33;;;;;;;20.73;3.85;;;;;;;;;;5112170;28;20027;-68
2022/10/17 12:51:00;;;;;;;13.73;3.22;;;;;;;;;;5108081;28;20039;-68
2022/10/17 12:53:27;;;;;;;35.00;5.93;;;;;;;;;;5112090;28;20065;-67
2022/10/17 12:55:58;;;;;;;15.50;3.53;;;;;;;;;;5111664;28;20043;-67
2022/10/17 12:58:23;;;;;;;17.33;3.55;;;;;;;;;;5111143;28;20080;-67
2022/10/17 13:00:52;;;;;;;12.38;3.30;;;;;;;;;;5110126;28;20023;-68
2022/10/17 13:03:20;;;;;;;16.75;4.28;;;;;;;;;;5109715;28;20186;-66
2022/10/17 13:05:57;;;;;;;9.18;3.20;;;;;;;;;;5110787;28;20625;-68
2022/10/17 13:08:30;;;;;;;19.50;4.30;;;;;;;;;;5109864;28;20110;-68
2022/10/17 13:10:56;;;;;;;9.20;3.58;;;;;;;;;;5111565;28;20496;-66
2022/10/17 13:13:56;;;;;;;13.13;3.80;;;;;;;;;;5110912;28;20066;-67
2022/10/17 13:16:28;;;;;;;21.20;5.25;;;;;;;;;;5048150;28;20117;-68
2022/10/17 13:18:54;;;;;;;18.65;4.75;;;;;;;;;;5100334;28;20384;-66
2022/10/17 13:21:19;;;;;;;15.18;3.58;;;;;;;;;;5110675;28;20098;-69
2022/10/17 13:23:46;;;;;;;20.02;4.22;;;;;;;;;;5106362;28;20046;-67
2022/10/17 13:26:15;;;;;;;9.57;2.63;;;;;;;;;;5103824;28;20031;-66
2022/10/17 13:28:40;;;;;;;8.50;3.22;;;;;;;;;;5102922;28;20099;-66
2022/10/17 13:31:06;;;;;;;14.38;3.30;;;;;;;;;;5107365;28;20110;-68
2022/10/17 13:33:34;;;;;;;16.40;3.55;;;;;;;;;;5106028;28;20054;-66
2022/10/17 13:36:01;;;;;;;19.92;3.83;;;;;;;;;;5110432;28;20043;-68
2022/10/17 13:38:27;;;;;;;15.90;3.65;;;;;;;;;;5110937;28;20093;-67
2022/10/17 13:40:53;;;;;;;14.63;4.78;;;;;;;;;;5110321;28;20489;-66
2022/10/17 13:43:20;;;;;;;13.90;3.85;;;;;;;;;;5104968;28;20087;-68
2022/10/17 13:45:58;;;;;;;12.60;3.03;;;;;;;;;;5102051;28;20024;-71
2022/10/17 13:48:25;;;;;;;13.10;3.60;;;;;;;;;;5102134;28;20027;-68
2022/10/17 13:50:55;;;;;;;17.23;3.65;;;;;;;;;;5099860;28;20020;-67
2022/10/17 13:53:28;;;;;;;9.00;2.92;;;;;;;;;;5102592;28;20026;-67
2022/10/17 13:55:58;;;;;;;11.18;3.33;;;;;;;;;;5101159;28;20103;-68
2022/10/17 13:58:24;;;;;;;9.25;2.70;;;;;;;;;;5099292;28;20794;-67
2022/10/17 14:00:51;;;;;;;16.30;3.13;;;;;;;;;;5100342;28;20023;-68
2022/10/17 14:03:16;;;;;;;20.00;3.55;;;;;;;;;;5104441;28;20553;-68
2022/10/17 14:06:00;;;;;;;9.40;3.30;;;;;;;;;;5104375;28;20012;-67
2022/10/17 14:08:26;;;;;;;9.63;2.65;;;;;;;;;;5099616;27;20023;-68
2022/10/17 14:10:51;;;;;;;12.32;3.40;;;;;;;;;;5101534;28;20335;-67
2022/10/17 14:13:21;;;;;;;11.23;3.10;;;;;;;;;;5102200;28;20094;-67
2022/10/17 14:15:47;;;;;;;15.25;3.42;;;;;;;;;;5100524;28;20659;-67
2022/10/17 14:18:16;;;;;;;10.38;2.75;;;;;;;;;;5100933;28;20091;-67
2022/10/17 14:20:45;;;;;;;14.30;2.90;;;;;;;;;;5101537;28;20031;-67
2022/10/17 14:23:30;;;;;;;8.93;2.58;;;;;;;;;;5100615;28;20376;-67
2022/10/17 14:26:13;;;;;;;7.35;2.67;;;;;;;;;;5098926;28;20480;-69
2022/10/17 14:28:39;;;;;;;10.00;3.00;;;;;;;;;;5103877;28;20052;-67
2022/10/17 14:31:12;;;;;;;7.85;3.33;;;;;;;;;;5099444;28;20504;-66
2022/10/17 14:33:41;;;;;;;10.73;3.15;;;;;;;;;;5100137;28;20016;-65
2022/10/17 14:36:07;;;;;;;11.00;3.42;;;;;;;;;;5100580;28;20115;-66
2022/10/17 14:38:34;;;;;;;11.82;3.13;;;;;;;;;;5110501;28;20055;-66
2022/10/17 14:41:07;;;;;;;14.52;3.05;;;;;;;;;;5111118;28;20026;-66